William Hepburn's Radioteletype DX 
SW - METEO
NIAGARA REGION , ONTARIO , CANADA


Radio

Radio-teletype

Radio-facsimile

Television

LF LW Nav MF MB


SW Meteo
SW Marine
SW Aero SW Press SW Pt-Pt


VHF Marine
AIR
PSB

N. America S. America Europe
Africa Asia Oceania Antarctica

 HF Meteorological Radioteletype Stations
received that have made regular meteorological broadcasts.

  NORTH AMERICA
  ALASKA

ELMENDORF / AKA 10665
SAXX72 KAWN
adk
adq
bet
big
brw
btt
cdb
cdv
dlg
dut
ena
fyu
gam
gkn
hom
jnu
ktn
mcg
mxy
ome
ort
otz
paq
psg
pth
scc
shh
sit
snp
tal
tka
umt
unk
vdz
yak
yda
yev
ygh
yma
yub
yvq
yxy
yzp
pacz
paed
paeh
paei
pafr
paga
pail
pakn
palu
pasv
pasy
patc
patl
 
  CANADA

HALIFAX / CFH 4271 6436.4 10536 13510
WAITING FOR TRAFFIC
RYRYRYRYRYRYRYRYRYRYRYRYRYRYRYRY
RYRYRYRYRYRYRYRYRYRYRYRYRYRYRYRY
RYRYRYRYRYRYRYRYRYRYRYRYRYRYRYRYRYRYRYRYRYRYRYRYRYRYRYRYRYRYRYRY
RYRYRYRYRYRYRYRYRYRYRYRYRYRYRYRYRYRYRYRYRYRYRYRYRYRYRYRYRYRYRYRY
CFH HALIFAX CFH HALIFAX CFH HALIFAX CFH HALIFAX CFH HALIFAX
CANADIAN FORCES METOC CENTRE, HALIFAX, NOVA SCOTIA, CANADA
BROADCASTING ON:             HF 13510 KHZ - 1000Z-2200Z DAILY.
                             HF  4271 KHZ - 2200Z-1000Z DAILY.
LF 122.5 KHZ  AND  HF 6496.4 AND 10536 KHZ  0000Z-2400Z DAILY.
LF 122.5 KHZ DOWN FOR MAINT. 2ND THUR. EACH MONTH 1200Z-1600Z.
CFH HALIFAX CFH HALIFAX CFH HALIFAX CFH HALIFAX CFH HALIFAX
MAILING ADDRESS: CANADIAN FORCES METOC CENTRE, FMO HALIFAX,
                               NOVA SCOTIA, CANADA, B3K 2X0
PHONE FACSIMILE: (902) 427-6381
RYRYRYRYRYRYRYRYRYRYRYRYRYRYRYRYRYRYRYRYRYRYRYRYRYRYRYRYRYRYRYRY
RYRYRYRYRYRYRYRYRYRYRYRYRYRYRYRYRYRYRYRYRYRYRYRYRYRYRYRYRYRYRYRY
RYRYRYRYRYRYRYRYRYRYRYRYRYRYRYRYRYRYRYRYRYRYRYRYRYRYRYRYRYRYRYRY
TRAFFIC FOLLOWS
CANADIAN FORCES METOC CENTRE, HALIFAX, NOVA SCOTIA, CANADA         TRAFFIC FOLLOWS
TAFNs CWHF 081413
cyaw - no report available
CYHZ 081400Z 24008KT 15SM BKN100 BKN280 10/01 A2970 RMK AC6CI1 SLP061 SKY89
CWSA 081400Z AUTO 24010KT 9SM FEW089 10/06 A2975 RMK SLP076 SKY0/
CYQI 081400Z 18005KT 10SM BKN075 OVC100 08/07 A2975 RMK AC6AS2 SLP076 SKYXX
CYQY 081400Z 24010G16KT 15SM FEW035 FEW240 11/03 A2962 RMK SC2CI0 SLP033 
     SKY23
CANADIAN FORCES METOC CENTRE, HALIFAX, NOVA SCOTIA, CANADA         TRAFFIC FOLLOWS
TAFNF CWHF 081414
CYQX 081400Z 25008KT 20SM FEW008 BKN015 OVC048 08/07 A2938 RMK SF1SC6SC1 
     SLP952 SKYXX
CYYT 081400Z 26024KT 15SM SCT015 SCT120 10/06 A2945 RMK SC3AC1 SLP976 SKY55
LFVP 081400Z 26021KT 9999 SCT008 SCT250 07/05 Q1000
CYJT 081400Z 24010KT 12SM SCT004 OVC009 06/04 A2950 RMK SF4SF4 SLP991 SKYXX
CYDF 081400Z 26020G25KT 15SM FEW010 BKN021 10/04 A2941 RMK SF1SC5 SLP959 
     SKY77
CANADIAN FORCES METOC CENTRE, HALIFAX, NOVA SCOTIA, CANADA         TRAFFIC FOLLOWS
TAFNB CWHF 081415
CYSJ 081400Z 24007KT 15SM BKN095 BKN30 08/M01 A2971 RMK AC6CI1 SLP064 SKY89
CYFC 081400Z AUTO 22005KT 170V260 9SM OVC110 09/00 A2968 RMK SLP051 RVR MISG
CYQM 081400Z 24005KT 15SM FEW100 BKN250 10/02 A2965 RMK AC1CS2 SLP043 SKY48
CYYG 081400Z 26008KT 15SM FEW030 BKN250 09/02 A2966 RMK SC1CI0 SLP046 SKY16
CYGR 081400Z 27018KT 20SM VP5030 SCT220 06/03 A2960 RMK SC2CI1 SLP024 SKY34
CANADIAN FORCES METOC CENTRE, HALIFAX, NOVA SCOTIA, CANADA         TRAFFIC FOLLOWS
TAFUS1 CWHF 081416
KNHZ - NO REPORT AVAILABLE
KBOS 081354Z 09006KT 10SM -RA FEW010 OVC018 11/10 A2955 RMK AO2 SLP005 P0010
KACK 081407Z 19013KT 1/2SM R24/3000VP6000FT FG VV001 13/13 A2956 RMK AO2
KGON 081356Z 12004KT 1SM R05/4000VP6000FT BR OVC001 14/13 A2951 RMK AO2 
     SLP991
KJFK 081351Z 25005KT 6SM -RA SCT022CB BKN080 BKN250 17/14 A2952 RMK AO2 RAB40 
     SLP995 CB NW-NE MOV NE P0000
KDOV 081355Z AUTO 25019G26KT 10SM FEW049 27/19 A2954 RMK AO2 PK WND 24026/1354
     CLDS LWR RWY01 SLP004
KADW 081355Z AUTO 30012G23KT 10SM SCT050 23/15 A2962 RMK AO2 SLP031 $
KNHK 081352Z 21018G25KT 9SM FEW030 SCT200 28/17 A2959 RMK AO2 PK WND 
     21027/1317 SLP020 T2 SET
KNGU 081359Z 22012G24KT 10SM BKN200 28/18 A2970 RMK AO2 PK WND 22027/1328 
     SLP055
KECG 081354Z 22018G28KT 10SM CLR 27/19 A2974 RMK AO2 PK WND 22030/1319 SLP070
CANADIAN FORCES METOC CENTRE, HALIFAX, NOVA SCOTIA, CANADA         traffic follows
TAFUS2 CWHF 081417
KMQI 081358Z AUTO 22018G27KT 10SM CLR 27/19 A2976 RMK AO2
KNKT 081354Z 20010G21KT 10SM CLR 26/19 A2983 RMK AO2 SLP097
KMYR 081348Z 23010G15KT 10SM CLR 27/19 A2992
KNBC 081356Z AUTO 23011KT 10SM CLR 26/20 A2995 RMK AO2 SLP142 $ 
KNIP 081353Z 25011KT 10SM BKN022 26/20 A3003 RMK AO2 SLP164
KCOF 081355Z 33007KT 7SM FEW012 28/22 A3006 RMK SLP179 0/0909Z
KHST 081400Z AUTO 00000KT 10SM BKN029 29/22 A3009 RMK AO2 SLP191 $
TXKF 081355Z 20009KT 9999 SCT007 BKN019 BKN300 22/20 Q1019 
TJNR - NO REPORT AVAILABLE
TJSJ 081356Z 04007KT 360V060 10SM SCT018 SCT040 SCT070 27/24 A3001 RMK AO2 
     SLP162 TCU DSNT SE SHRA DSNT SE

  USA

MIAMI 1 / WBR70 4061.5 5925 8140 14853 16440
WBC
 
MIAMI 2 / WBR70 8130
WBC
saba20 mynn
mynn
mygf
sabe txkf
txkf
saca20 kwbc
tjmz
tjsj
tisx
tist
saca20 mroc
mr
mroc
mrlm
mr
mrlb
saca21 mzbz
mzbz
saca01 tjsj
tjsj
saca31 tncc
tncm
tnca
tncc
tncb
saco20 skbo
skbg
skbo
skbq
skcg
skcl
sklt
skrg
sksp
saes20 mslp
msac
mssa
msss
mslp
mssm
safg20 soca
soca
samf20 tffr
tffr
samn31 tncm
tncm
samr20 tfff
tfff
samx01 mmmx
aca
adn
cme
cpe
ctm
gdl
mex
mid
mty
mzt
pvr
pza
tap
tcg
ver
samx03 mmmx
cpe
ctm
cun
czm
gdl
hmo
lap
mid
mtt
mty
mxl
mzt
nld
oax
pvr
tam
tap
tgz
ver
vsa
yep
zlo
sasm20 smzy
smjp
satd20 ttpp
ttcp
ttpp
savn20 svbs
svcr
svlo
svmc
svbm
svpc
svbs
svmi
sv
svbc
svcu
svmg
svgi
svmn
svvl
svmt
svcb
svva
svso
savn21 svbs
svac
svgu
svjm
svcz
svvg
svmd
svbi
svsa
svgd
svsr
svtm
svpa
svse
svtr
sv
 
OFFUTT / AFS 3231 5906 6398 6904 11120 19326  / AFE51  4855 7398
SAXX80 KAWN
abr
adm
adw
ags
ahn
alb
alo
aoo
atl
aug
auw
avl
avp
bad
bdr
bed
bfd
bhm
blf
blv
bna
bro
bsm
btr
buf
bwi
byh
cbm
cef
cgi
cha
chs
cid
cle
clt
cmh
cmx
cnk
cnu
cof
cou
crp
crw
csv
dal
day
dbq
dca
ddc
dlf
dlh
dov
dsm
duj
dys
ecg
ekn
eld
elm
emp
end
eri
esc
evv
ewr
far
fnt
fri
fsd
fsi
ftw
fwa
glh
gnv
gpt
grb
grk
gsb
gso
gsp
gus
hat
hib
hlc
hon
hop
hot
hro
hst
hsv
htl
hts
huf
hut
iah
ilm
ind
inl
ipt
jan
jax
laf
lch
lex
lfi
lfk
lft
liz
lnk
lou
lrd
lrf
lsf
lts
mbl
mcb
mcf
mdt
mei
mem
mgw
mia
mke
mkg
mli
mlu
mob
mot
mrb
msl
msn
msp
mxf
myr
nbg
nca
nqx
off
ofk
ord
orl
osc
ozr
pam
pbg
pbi
phl
pia
pit
pkb
pln
pns
pob
psm
pvd
rdr
rdu
rfd
ric
rme
roa
roc
rst
sav
saw
sbn
sgf
skf
spi
sps
ssc
stj
stl
sux
sZl
tch
tlh
tol
top
tri
tul
tup
txk
tyr
tys
vct
vld
wrb
wri
mhpl
mhsr
mhte
mhtg
mkjp
mpbo
mpda
mpho
mpsa
mrpv
msss
muha
skbq
sksp
svcb
svcr
svmc
svmd
svmg
svmi
svsa
tist
tisx
tjnr
tjps
 
  SOUTH AMERICA
none
 
  EUROPE
  AZORES

SANTA MARIA / CSY 5474 9994.2
CH LR CMA010 DE CSY
sauk31 eggy
egbb
egcc
egkk
egll
egpf
egph
egpk
egss
 
  BULGARIA

SOFIA / LZM 6795
 
 
  ÉIRE

SHANNON / EIP 5813.5 8145
EIAA
 
  ENGLAND

BRACKNELL / GFL 4489 6835 10551.3 14356
CQCQCQ DE GFL23/24/25/26 GFL23/24/25/26 GFL23/24/25/26 GFL23/24/25/26
RYRYRYRYRyrYRYRYRyRYRYRYRYRYRYRYRYRYRYRYRYRYRYRYRYRYRYRYRYR
RY
 
  GERMANY

HAMBURG 1 / DDH7 4583 7646 10100.8
CQ CQ CQ DE DDK2 DDH7 DDK9
FREQUENCIES   4583 KHZ   7646 KHZ   10100.8 KHZ
RYRYRYRYRYRYRYRYRYRYRYRYRYRYRYRYRYRYRYRYRYRYRYRYRYRYRYRYRYRYRYRY
CQ CQ CQ DE DDK2 DDH7 DDK9
FREQUENCIES   4583 KHZ   7646 KHZ   10100.8 KHZ

RYRYRYRYRYRYRYRYRYRYRYRYRYRYRYRYRYRYRYRYRYRYRYRYRYRYRYRYRYRYRYRY
CQ CQ CQ DE DDK2 DDH7 DDK9
FREQUENCIES   4583 KHZ   7646 KHZ   10100.8 KHZ

RYRYRYRYRYRYRYRYRYRYRYRYRYRYRYRYRYRYRYRYRYRYRYRYRYRYRYRYRYRYRYRY
 
HAMBURG 2 / DDH8 11039 14467.3
CQ CQ CQ DE DDH47 DDH9 DDH8
FREQUENCIES   147.3 KHZ   11039 KHZ   14467.3 KHZ
RYRYRYRYRYRYRYRYRYRYRYRYRYRYRYRYRYRYRYRYRYRYRYRYRYRYRYRYRYRYRYRY
CQ CQ CQ DE DDH47 DDH9 DDH8
FREQUENCIES   147.3 KHZ   11039 KHZ   14467.3 KHZ
RYRYRYRYRYRYRYRYRYRYRYRYRYRYRYRYRYRYRYRYRYRYRYRYRYRYRYRYRYRYRYRY
CQ CQ CQ DE DDH47 DDH9 DDH8
FREQUENCIES   147.3 KHZ   11039 KHZ   14467.3 KHZ
RYRYRYRYRYRYRYRYRYRYRYRYRYRYRYRYRYRYRYRYRYRYRYRYRYRYRYRYRYRYRYRY
zCZC 762    
SXEN40 EDZW 110300

WETtermelduNGEN VON SONNTAG, DEz 11.12.2011 11.12.11 03:00 UTC.

SVINOY         --          -- //     4 GRAD    999 HPA
STaVANGeR      WEST  2 //     6 GRAD   100: HPa
ABERDEEN       SUEDSUEDWEST  3 //     5 GRAD    998 HPA
TYNEMOUTH      SUED  3 //     5 GRAD   1002 HPA
DEN HELDER     WESTSUEDWEST  4 //     7 gRAD   1013 HPA
NORDERNEY      SUEDWEST  4 REGEN      4 GRAD   1012 HPA
Helgoland      WEST  4 //     7 GRAd   1011 HPA
CUXHAVEN       SUEDWEST  4 //     4 GRAD   1812 HPA
BREMERHAVEN    WESTSUEDWEST  5 REGEN      3 GRAD   1013 HPA
LIST/SYLT      WEST  4 //     6 GRAD   1009 HPA
THYBOROEN      WEST  6 REGENSCHAUER      7 GRAD   1005 HPA
SKAGEN         WESTNORDWEST  4 //     6 GRAD   1001 HPA
ROESNAES       WEST  7 REGEN      6 GRAD   1006 HPA
KEGNAES        WEST  5 //     5 GRAD   1009 HPA
KIEL-HOLTENAU  SUEDWEST  3 REGEN      2 GRAD   1010 HPA
LEUCHT.KIEL    SUEDWEST  5 //     3 GRAD   1010 HPA
FEHMARN        WESTSUEDWEST  5 //     3 GRAD   1=11 HPA
ARKONA         WESTSUEDWEST  6 //     & GRAD   7008 HPA
BORNHOLm       WEST  7 //     6 GRAD   1005 HPA
SOEDERHAMN     WESTSUEDWEST  1 //     0 GRAD   994 HPA
VISBY          WESTNORdWEST  4 REGENSCHAUER      3 grad    997 HPA
UTOE(finnland) JAA          AA XXK. A.5     K. A.
RiGA           SUE  3 ./    1 grad    999 HPA
HEL H          WEST  4 //       GRAD   1005 hpa
SOesterberg    SUEDWEST  3 //    2 grad  1015 hpa
MAnston        SUEDWEST  3 //     2 GRAD   1015 HPA
JERSEY         SUEPEFWEST  4 /(#8   8 gRAD   1016 hpa
culdrose        #  '73$3'  4 /0     9 GRAD   0181 HPA
BElmullet      FUDAESO  5 /.     9 GRAD   1002 HPA
STOrnoway      SUEDWeST  4 NEBEL      5 GRAD    994 HpA

SEEWETERDIENST HAMBURG

NNNN
ZCZC PUYE    
SXMM41 edzw 110300

WETTERMELDUNGEN VON SONNTAG, DEz 11.12.2011 11.12.11 03:00 UTC.

BrEST          SUEDSUEDOST  2 //     6 GRAD   1016 HPA
LA CORUNA      SUED  1 //     9 GRAD   1017 HPA
GIBRALTar      SUEDWEST  4 REGENSCHAUER     15 GRAD   1019 HPA
PALMA/MALL.    NORDOST  1 WESIG      7 GRAD   1017 HPA
MARSEILLE      SUEDSUEDOsT  1 //     5 GRAD   1017 HPA
GENOVA         NORDOST  4 //    12 GRAD   1017 HPA
GROSSETO       NORDNORDOST  2 //     9 GRAD   1018 HPA
AJACCIO        NORDOST  3 //    10 GRAD   1018 HPA
PONZA          SUEDWEST  3 //    15 GRAD   1018 HPA
CAGLIARI       NORDWEST  1 DIESIG     11 GRAD   1019 HPA
MESSINA        WEST  1 //    16 GRAD   1021 HPA
MALTA          SUEDSUEDWEST  2 //    16 GRAD   1022 HPA
BRINDISI       SUEDSUEDOST  0 DIESIG     11 GRAD   1021 HPA
ANCONA         NORD  1 //     9 GRAD   1019 HPA
VENEZIA        --          -- //K. A.      K. A.
PULA           NORDOST  1 DIESIG      9 GRAD   1018 HPA
TRIEST         NORDOST  0 DIESIG      9 GRAD   1018 HPA
SPLit          WINDSTILLE  0 ./    12 GRAD   1019 HPA
DUBROVNIK      SUEDSUEDOST  3 //    14 GRAD   1020 HPA
MILOS          --          -- //K. A.      K. A.
ATHEN          --          -- //K. A.      K. A.
LIMNOS         SUEDWEST  1 //    13 GRAD   1023 HPA
HERAKLION      SUEDSUEDWEST  2 //    10 GRAD   1026 HPA
RHODOS         WINDSTILLE  0 //    10 GRAD   1026 HPA
ANTALYA        NORD  2 //     3 GRAD   1027 HPA
LAS PALMAS     NORD  4 //    19 GRAD   1021 HPA

SEEWETTERDIENST HAMBURG

nnnn
 
  ITALY

ROMA / IMB 3172.5 4777.5 5887.5 11453 13597.4
SMIY01 LIIB
 
  RUSSIA

MOSKVA / RDD77 11450
RUMS
 
  SWEDEN

STOCKHOLM / ?

 
  AFRICA
  BENIN

COTONOU / TYE 5117.5

 
  BURKINA FASO

OUAGADOUGOU / XTU 6775.25

 
  CENTRAFRICA

BANGUI / TLO 9287

 
  EGYPT

CAIRO / SUC 10633
DE SUC SUC SUC
RYRYRYRYRYRYRYRYRYRYRYRYRYRYRYRYRYRYRYRYRYRYRYRYRYRYRYRYRYRYRYRYRYRY
RYRYRYRYRYRYRYRYRYRYRYRYRYRYRYRYRYRYRYRYRYRYRYRYRYRYRYRYRYRYRYRYRYRY
RYRYRYRYRYRYRYRYRYRYRYRYRYRYRYRYRYRYRYRYRYRYRYRYRYRYRYRYRYRYRYRYRYRY
NNNN
 
  KENYA

NAIROBI / 5YD 13373.4

 
  MALI

BAMAKO / TZH 7652.9

 
  NIGER

NIAMEY / 5UA 9187

 
  SENEGAL

DAKAR / 6VU 4788 13665 19747.5
CQ    CQ    CQ   DE    6VU23/73/79     6VU23/73/79     6VU23/73/79
RYRYRYRYRYRYRYRYRYRYRYRYRYHRYRYRYRYRYRYRYRYRYRYRYRYRYRYRYRYRYRYRY
CQ    CQ    CQ   DE    6VU23/73/89     6VU23/73/79     6VU23/73/79
RYRYRYRYRYRYRYRYRYRYRYRYRYRYRYRYRYRYRYRYRYRHRYRYRYRYRYRYRYRYRYRYRY
CQ    CQNP  CQ   DE    6VU23/73/79     6VU23/73/79     6VU23/73/79
RYRYRYRYRYRYRYRYRYRYRYRYRYRYRYRYRYIYRYRYRYRYRYRYRYRYRYRYRYRYRYRYRY
saao20 gooy
gooy
gqpp
diap
gvac
gabs
gqnn
gucy
dgaa
glrb
 
DAKAR / 6VY 6975 7595 9070
SA
gooy
SA
gbyd
SA
gucy
SA
dffd
SA
drrn
SA
lptt
lpp
lpfr
lpps
gclp
gcxo
gcts
gc
lpku
gcrr
gcfv
SA
lexd
lepa
lezl
lemv
levc
leai
leib
 
  SOUTH AFRICA

PRETORIA / ZRO 7512
SMZA01 FAPR
 
  ASIA
  JAPAN

TOKYO / JMG 14880
ZCZC JMG 458     
SMRA10 RUHB 291800 RRA
AAXX 29181
31168 41296 80407 10008 20005 40106 52007 78388 889//   333
91112 95070=
31329 41/93 /0301 10007 20004 &0063 52008 74544 8///V
31484 42984 10000 11004 21006 40069 53012 81030=
 
  SAUDI ARABIA

JEDDAH / HZJ 5733

 
JEDDAH / HZN 5740 7624.9 10215
ZCZC 655 00000
FT S31
OBBI 0606 15008KT CAVOK PROB20 TEMPO 1524 MAX25 (000 95TW2CB068=
OOMS 01UIQQUWRQCKT 8000 06HZ 3SCCU030 GRADU 151( 23#06KT CAVOK=
VGSA 0606 -1009/15KT 9999 3:020 TEMPO 8000 0)HZ 5SC020=
OTBD 0606 14004KT POOOO WSC01-86-:100 TEMPO 0615 7100 60RA 3VUYC020
  8       7PAS090 GRADU 1719 30010KT CAVOK=
OKBK UWJUPEPQWKT 9999 4SCSC040 ACAPIP PCOB30 8000 8#SH 2CB040=
OMAA 0606 VRB08KT CAVOK=
OMDB 0606 VRB08KT CAvOK=
OMSJ 0606 VRB08KT CAVOK=
OMRK 0606 VRB08KT CaVOK=
NNNN
ZCZC
sasd20 oejd
oeab
oeah
oeba
oebh
oedr
oedw
oegn
oegs
oegt
oehl
oejn
oekb
oekk
oema
oemi
oemk
oeng
oepa
oerf
oerk
oerr
oery
oesh
oesk
oetb
oewd
oewj
oeyn
nnnn
ZCZC 
Saar40 oejd
obbi
okbk
omaa
omad
omdb
omrk
omsj
ooms
otbd
nnnn
ZCZC
sakw20 okbk
okbk
nnnn
ZCZC
saom20 ooms
ooma
ooms
oosa
oosq
ooth
nnnn
ZCZC
saye20 oysn
oysn
oyar
oytz
nnnn
 
  OCEANIA
  NEW ZEALAND

AUCKLAND / ZKLF 13550.1
 
 
WELLINGTON / ZLZ 7600
 
 
  ANTARCTICA
none
 



LF LW Nav MF MB


SW Meteo
SW Marine
SW Aero SW Press SW Pt-Pt


VHF Marine
AIR
PSB
Home

DX Info Centre

 ©2020 William R. Hepburn